Dobbins Air Reserve Base Airport
KMGE : now visible

Airfield :











YOU CAN JOIN US ON...

 
LOGIN :

Register | Disclaimer

   EN    FR    IT 

 









Legend :    VFR   Marginal VFR   IFR   Intensive IFR   Very Intensive IFR
Visi :
Ceiling :
>= 8 km
>= 3000ft
5 to 8 km
1000 to 3000 ft
1500m to 5 km
500 to 1000 ft
800 to 1500m
200 to 500 ft
< 800m
< 200 ft
Symbols :   Thunderstorms  Fog  Heavy snow  Heavy precipitations  Wind > 20 kt






- Airport Elevation : 1068 ft


KMGE - Dobbins Air Reserve Base

CURRENT METAR :
  • 282055Z 32011KT 10SM BKN050 BKN200 BKN250 30/14 A2999 RMK AO2A SLP147 T02960141 57011

EXPIRED METARs :
  • 281955Z 28013KT 10SM SCT050 BKN200 BKN250 30/15 A3000 RMK AO2A SLP150 T02950145
  • 281855Z 29015G20KT 10SM SCT060 29/12 A3002 RMK AO2A SLP157 T02890123
  • 281755Z 30013G20KT 10SM SCT060 28/13 A3002 RMK AO2A SLP158 T02840131 10284 20223 58002

TAF TAF KMGE
Valid from the 28 at 21:00 until the 30 at 03:00 UTC


282100Z 2821/3003 29012G20KT 9999 SCT050 BKN200 BKN250 QNH2998INS
TEMPO 2821/2824 32015G25KT
BECMG 2823/2824 30007KT 9999 FEW200 FEW250 QNH3000INS
BECMG 2915/2916 31012G20KT 9999 SKC QNH3005INS
BECMG 2923/2924 32007KT 9999 SKC QNH3007INS TX29/2821Z TN14/2912Z LAST NO AMDS AFT 2903 NEXT 2911
KZTL FIR / North America



MET'MAP, your aeronautical weather chart ! - Copyright ORBIFLY December 2007 - Disclaimer

ORBIFLY MET'MAP TEAM :

Programming & Development : Alexandra Zaïnal
Original concept : Baudouin d'Aumeries
Technical & hardware support : Manuel Goepfert
Assistance : Marc-Olivier Méhu




SOURCES & CREDITS :

   NOAA       Earth
Advisory